sensor_id;sensor_type;location;lat;lon;timestamp;P1;durP1;ratioP1;P2;durP2;ratioP2
79135;SDS011;68533;51.090;17.216;2023-03-14T00:00:05;15.10;;;6.32;;
79135;SDS011;68533;51.090;17.216;2023-03-14T00:02:56;8.85;;;4.22;;
79135;SDS011;68533;51.090;17.216;2023-03-14T00:05:22;8.88;;;3.55;;
79135;SDS011;68533;51.090;17.216;2023-03-14T00:07:48;9.65;;;4.05;;
79135;SDS011;68533;51.090;17.216;2023-03-14T00:10:14;10.35;;;3.67;;
79135;SDS011;68533;51.090;17.216;2023-03-14T00:12:41;8.50;;;4.35;;
79135;SDS011;68533;51.090;17.216;2023-03-14T00:15:07;10.18;;;5.15;;
79135;SDS011;68533;51.090;17.216;2023-03-14T00:17:34;7.57;;;4.47;;
79135;SDS011;68533;51.090;17.216;2023-03-14T00:20:02;7.88;;;4.30;;
79135;SDS011;68533;51.090;17.216;2023-03-14T00:22:30;10.38;;;4.53;;
79135;SDS011;68533;51.090;17.216;2023-03-14T00:24:57;10.98;;;5.05;;
79135;SDS011;68533;51.090;17.216;2023-03-14T00:27:23;13.68;;;5.80;;
79135;SDS011;68533;51.090;17.216;2023-03-14T00:29:50;11.05;;;4.90;;
79135;SDS011;68533;51.090;17.216;2023-03-14T00:32:16;10.40;;;4.95;;
79135;SDS011;68533;51.090;17.216;2023-03-14T00:34:42;10.10;;;4.72;;
79135;SDS011;68533;51.090;17.216;2023-03-14T00:37:08;11.63;;;4.82;;
79135;SDS011;68533;51.090;17.216;2023-03-14T00:39:34;9.15;;;4.95;;
79135;SDS011;68533;51.090;17.216;2023-03-14T00:42:00;9.80;;;4.32;;
79135;SDS011;68533;51.090;17.216;2023-03-14T00:44:26;8.00;;;4.75;;
79135;SDS011;68533;51.090;17.216;2023-03-14T00:46:52;10.80;;;4.93;;
79135;SDS011;68533;51.090;17.216;2023-03-14T00:49:19;14.32;;;5.53;;
79135;SDS011;68533;51.090;17.216;2023-03-14T00:51:44;10.10;;;5.07;;
79135;SDS011;68533;51.090;17.216;2023-03-14T00:54:12;9.60;;;4.88;;
79135;SDS011;68533;51.090;17.216;2023-03-14T00:56:38;10.15;;;5.22;;
79135;SDS011;68533;51.090;17.216;2023-03-14T00:59:04;9.18;;;4.40;;
79135;SDS011;68533;51.090;17.216;2023-03-14T01:01:30;12.38;;;5.82;;
79135;SDS011;68533;51.090;17.216;2023-03-14T01:03:56;13.85;;;5.93;;
79135;SDS011;68533;51.090;17.216;2023-03-14T01:06:24;11.95;;;6.45;;
79135;SDS011;68533;51.090;17.216;2023-03-14T01:08:52;10.73;;;6.43;;
79135;SDS011;68533;51.090;17.216;2023-03-14T01:11:19;10.82;;;5.45;;
79135;SDS011;68533;51.090;17.216;2023-03-14T01:13:50;10.07;;;5.32;;
79135;SDS011;68533;51.090;17.216;2023-03-14T01:16:17;10.30;;;5.35;;
79135;SDS011;68533;51.090;17.216;2023-03-14T01:18:45;11.07;;;6.20;;
79135;SDS011;68533;51.090;17.216;2023-03-14T01:21:13;10.73;;;6.20;;
79135;SDS011;68533;51.090;17.216;2023-03-14T01:23:45;11.00;;;5.50;;
79135;SDS011;68533;51.090;17.216;2023-03-14T01:26:14;12.25;;;5.32;;
79135;SDS011;68533;51.090;17.216;2023-03-14T01:28:44;12.60;;;5.80;;
79135;SDS011;68533;51.090;17.216;2023-03-14T01:31:11;13.07;;;6.13;;
79135;SDS011;68533;51.090;17.216;2023-03-14T01:33:39;12.63;;;6.43;;
79135;SDS011;68533;51.090;17.216;2023-03-14T01:36:05;15.50;;;7.90;;
79135;SDS011;68533;51.090;17.216;2023-03-14T01:38:32;27.02;;;9.07;;
79135;SDS011;68533;51.090;17.216;2023-03-14T01:40:59;25.25;;;9.32;;
79135;SDS011;68533;51.090;17.216;2023-03-14T01:43:26;19.02;;;8.18;;
79135;SDS011;68533;51.090;17.216;2023-03-14T01:48:47;11.98;;;4.63;;
79135;SDS011;68533;51.090;17.216;2023-03-14T01:57:12;10.38;;;6.70;;
79135;SDS011;68533;51.090;17.216;2023-03-14T02:02:48;24.08;;;9.23;;
79135;SDS011;68533;51.090;17.216;2023-03-14T02:05:21;19.80;;;7.47;;
79135;SDS011;68533;51.090;17.216;2023-03-14T02:07:54;17.15;;;6.65;;
79135;SDS011;68533;51.090;17.216;2023-03-14T02:10:26;16.75;;;7.35;;
79135;SDS011;68533;51.090;17.216;2023-03-14T02:12:55;20.48;;;7.75;;
79135;SDS011;68533;51.090;17.216;2023-03-14T02:15:22;20.55;;;9.35;;
79135;SDS011;68533;51.090;17.216;2023-03-14T02:17:49;25.77;;;10.65;;
79135;SDS011;68533;51.090;17.216;2023-03-14T02:22:46;25.98;;;10.32;;
79135;SDS011;68533;51.090;17.216;2023-03-14T02:28:16;10.95;;;5.00;;
79135;SDS011;68533;51.090;17.216;2023-03-14T02:30:42;8.90;;;4.25;;
79135;SDS011;68533;51.090;17.216;2023-03-14T02:33:12;8.32;;;3.80;;
79135;SDS011;68533;51.090;17.216;2023-03-14T02:35:51;9.60;;;4.03;;
79135;SDS011;68533;51.090;17.216;2023-03-14T02:41:09;6.93;;;3.10;;
79135;SDS011;68533;51.090;17.216;2023-03-14T02:43:35;8.45;;;3.72;;
79135;SDS011;68533;51.090;17.216;2023-03-14T02:46:01;5.88;;;3.10;;
79135;SDS011;68533;51.090;17.216;2023-03-14T02:48:51;5.53;;;2.47;;
79135;SDS011;68533;51.090;17.216;2023-03-14T02:51:22;5.30;;;3.03;;
79135;SDS011;68533;51.090;17.216;2023-03-14T02:53:49;10.68;;;2.38;;
79135;SDS011;68533;51.090;17.216;2023-03-14T02:56:15;6.97;;;3.35;;
79135;SDS011;68533;51.090;17.216;2023-03-14T02:58:41;6.15;;;3.13;;
79135;SDS011;68533;51.090;17.216;2023-03-14T03:01:07;5.22;;;2.97;;
79135;SDS011;68533;51.090;17.216;2023-03-14T03:03:33;4.05;;;2.03;;
79135;SDS011;68533;51.090;17.216;2023-03-14T03:06:00;4.18;;;2.40;;
79135;SDS011;68533;51.090;17.216;2023-03-14T03:08:26;3.97;;;2.15;;
79135;SDS011;68533;51.090;17.216;2023-03-14T03:10:53;5.72;;;2.33;;
79135;SDS011;68533;51.090;17.216;2023-03-14T03:13:19;4.35;;;1.90;;
79135;SDS011;68533;51.090;17.216;2023-03-14T03:15:46;3.75;;;2.28;;
79135;SDS011;68533;51.090;17.216;2023-03-14T03:18:12;6.55;;;2.95;;
79135;SDS011;68533;51.090;17.216;2023-03-14T03:20:39;3.20;;;2.22;;
79135;SDS011;68533;51.090;17.216;2023-03-14T03:23:05;6.18;;;2.53;;
79135;SDS011;68533;51.090;17.216;2023-03-14T03:25:31;4.35;;;2.13;;
79135;SDS011;68533;51.090;17.216;2023-03-14T03:27:57;4.78;;;1.92;;
79135;SDS011;68533;51.090;17.216;2023-03-14T03:30:24;1.98;;;1.20;;
79135;SDS011;68533;51.090;17.216;2023-03-14T03:32:51;4.45;;;1.95;;
79135;SDS011;68533;51.090;17.216;2023-03-14T03:35:17;3.40;;;2.05;;
79135;SDS011;68533;51.090;17.216;2023-03-14T03:37:43;4.75;;;2.17;;
79135;SDS011;68533;51.090;17.216;2023-03-14T03:40:09;2.05;;;1.55;;
79135;SDS011;68533;51.090;17.216;2023-03-14T03:42:35;3.15;;;2.38;;
79135;SDS011;68533;51.090;17.216;2023-03-14T03:45:02;4.80;;;2.05;;
79135;SDS011;68533;51.090;17.216;2023-03-14T03:47:29;3.60;;;2.03;;
79135;SDS011;68533;51.090;17.216;2023-03-14T03:49:56;4.82;;;1.63;;
79135;SDS011;68533;51.090;17.216;2023-03-14T03:52:22;5.22;;;2.30;;
79135;SDS011;68533;51.090;17.216;2023-03-14T03:54:48;3.15;;;1.83;;
79135;SDS011;68533;51.090;17.216;2023-03-14T03:57:14;3.35;;;1.10;;
79135;SDS011;68533;51.090;17.216;2023-03-14T03:59:40;3.55;;;1.60;;
79135;SDS011;68533;51.090;17.216;2023-03-14T04:02:07;2.55;;;1.85;;
79135;SDS011;68533;51.090;17.216;2023-03-14T04:04:33;4.78;;;2.25;;
79135;SDS011;68533;51.090;17.216;2023-03-14T04:06:59;3.08;;;1.77;;
79135;SDS011;68533;51.090;17.216;2023-03-14T04:09:25;4.72;;;2.00;;
79135;SDS011;68533;51.090;17.216;2023-03-14T04:11:52;3.88;;;1.88;;
79135;SDS011;68533;51.090;17.216;2023-03-14T04:14:19;4.20;;;2.83;;
79135;SDS011;68533;51.090;17.216;2023-03-14T04:16:44;3.55;;;1.75;;
79135;SDS011;68533;51.090;17.216;2023-03-14T04:19:10;6.00;;;2.17;;
79135;SDS011;68533;51.090;17.216;2023-03-14T04:21:36;3.25;;;1.90;;
79135;SDS011;68533;51.090;17.216;2023-03-14T04:24:06;7.28;;;2.10;;
79135;SDS011;68533;51.090;17.216;2023-03-14T04:26:34;3.65;;;2.30;;
79135;SDS011;68533;51.090;17.216;2023-03-14T04:29:00;2.60;;;1.85;;
79135;SDS011;68533;51.090;17.216;2023-03-14T04:31:26;4.00;;;2.08;;
79135;SDS011;68533;51.090;17.216;2023-03-14T04:33:52;6.47;;;1.98;;
79135;SDS011;68533;51.090;17.216;2023-03-14T04:36:18;5.03;;;1.90;;
79135;SDS011;68533;51.090;17.216;2023-03-14T04:38:44;4.40;;;2.15;;
79135;SDS011;68533;51.090;17.216;2023-03-14T04:41:10;4.00;;;2.25;;
79135;SDS011;68533;51.090;17.216;2023-03-14T04:43:37;5.88;;;1.88;;
79135;SDS011;68533;51.090;17.216;2023-03-14T04:46:03;4.93;;;2.22;;
79135;SDS011;68533;51.090;17.216;2023-03-14T04:48:29;5.28;;;2.40;;
79135;SDS011;68533;51.090;17.216;2023-03-14T04:50:55;3.75;;;1.90;;
79135;SDS011;68533;51.090;17.216;2023-03-14T04:53:21;3.80;;;2.67;;
79135;SDS011;68533;51.090;17.216;2023-03-14T04:55:48;3.33;;;2.10;;
79135;SDS011;68533;51.090;17.216;2023-03-14T04:58:15;13.85;;;4.70;;
79135;SDS011;68533;51.090;17.216;2023-03-14T05:00:41;17.02;;;5.60;;
79135;SDS011;68533;51.090;17.216;2023-03-14T05:03:07;5.80;;;1.95;;
79135;SDS011;68533;51.090;17.216;2023-03-14T05:05:33;6.82;;;2.25;;
79135;SDS011;68533;51.090;17.216;2023-03-14T05:07:59;4.88;;;2.10;;
79135;SDS011;68533;51.090;17.216;2023-03-14T05:10:27;7.22;;;3.25;;
79135;SDS011;68533;51.090;17.216;2023-03-14T05:12:55;5.40;;;2.25;;
79135;SDS011;68533;51.090;17.216;2023-03-14T05:15:21;6.38;;;3.03;;
79135;SDS011;68533;51.090;17.216;2023-03-14T05:17:47;5.15;;;2.35;;
79135;SDS011;68533;51.090;17.216;2023-03-14T05:20:14;5.20;;;2.58;;
79135;SDS011;68533;51.090;17.216;2023-03-14T05:22:41;9.68;;;4.22;;
79135;SDS011;68533;51.090;17.216;2023-03-14T05:25:10;4.75;;;2.78;;
79135;SDS011;68533;51.090;17.216;2023-03-14T05:27:37;8.27;;;3.22;;
79135;SDS011;68533;51.090;17.216;2023-03-14T05:30:04;4.93;;;2.33;;
79135;SDS011;68533;51.090;17.216;2023-03-14T05:32:31;8.90;;;2.67;;
79135;SDS011;68533;51.090;17.216;2023-03-14T05:34:58;5.85;;;2.55;;
79135;SDS011;68533;51.090;17.216;2023-03-14T05:37:25;5.00;;;2.70;;
79135;SDS011;68533;51.090;17.216;2023-03-14T05:39:52;7.78;;;2.50;;
79135;SDS011;68533;51.090;17.216;2023-03-14T05:42:18;4.10;;;2.33;;
79135;SDS011;68533;51.090;17.216;2023-03-14T05:44:44;6.05;;;2.60;;
79135;SDS011;68533;51.090;17.216;2023-03-14T05:47:11;5.15;;;2.47;;
79135;SDS011;68533;51.090;17.216;2023-03-14T05:49:46;6.07;;;2.30;;
79135;SDS011;68533;51.090;17.216;2023-03-14T05:52:12;4.50;;;2.63;;
79135;SDS011;68533;51.090;17.216;2023-03-14T05:54:38;4.45;;;2.90;;
79135;SDS011;68533;51.090;17.216;2023-03-14T05:57:05;4.63;;;3.00;;
79135;SDS011;68533;51.090;17.216;2023-03-14T05:59:33;7.63;;;3.47;;
79135;SDS011;68533;51.090;17.216;2023-03-14T06:02:01;12.20;;;3.65;;
79135;SDS011;68533;51.090;17.216;2023-03-14T06:04:27;5.88;;;3.50;;
79135;SDS011;68533;51.090;17.216;2023-03-14T06:06:57;6.03;;;2.85;;
79135;SDS011;68533;51.090;17.216;2023-03-14T06:09:23;5.50;;;2.33;;
79135;SDS011;68533;51.090;17.216;2023-03-14T06:11:50;5.05;;;2.83;;
79135;SDS011;68533;51.090;17.216;2023-03-14T06:14:18;6.05;;;3.08;;
79135;SDS011;68533;51.090;17.216;2023-03-14T06:16:45;5.05;;;3.53;;
79135;SDS011;68533;51.090;17.216;2023-03-14T06:19:13;3.63;;;1.58;;
79135;SDS011;68533;51.090;17.216;2023-03-14T06:21:39;5.50;;;2.30;;
79135;SDS011;68533;51.090;17.216;2023-03-14T06:24:05;5.50;;;2.45;;
79135;SDS011;68533;51.090;17.216;2023-03-14T06:26:32;5.43;;;2.60;;
79135;SDS011;68533;51.090;17.216;2023-03-14T06:29:01;6.30;;;3.22;;
79135;SDS011;68533;51.090;17.216;2023-03-14T06:31:32;3.92;;;2.00;;
79135;SDS011;68533;51.090;17.216;2023-03-14T06:36:24;5.30;;;2.47;;
79135;SDS011;68533;51.090;17.216;2023-03-14T06:38:50;5.45;;;2.72;;
79135;SDS011;68533;51.090;17.216;2023-03-14T06:41:17;7.80;;;3.10;;
79135;SDS011;68533;51.090;17.216;2023-03-14T06:43:44;6.15;;;2.20;;
79135;SDS011;68533;51.090;17.216;2023-03-14T06:46:11;6.82;;;2.72;;
79135;SDS011;68533;51.090;17.216;2023-03-14T06:48:43;5.30;;;2.58;;
79135;SDS011;68533;51.090;17.216;2023-03-14T06:51:09;8.73;;;3.08;;
79135;SDS011;68533;51.090;17.216;2023-03-14T06:53:35;5.22;;;3.10;;
79135;SDS011;68533;51.090;17.216;2023-03-14T06:56:01;7.57;;;2.70;;
79135;SDS011;68533;51.090;17.216;2023-03-14T06:58:30;4.95;;;2.10;;
79135;SDS011;68533;51.090;17.216;2023-03-14T07:00:57;7.28;;;3.15;;
79135;SDS011;68533;51.090;17.216;2023-03-14T07:03:28;5.57;;;2.63;;
79135;SDS011;68533;51.090;17.216;2023-03-14T07:05:54;8.55;;;2.83;;
79135;SDS011;68533;51.090;17.216;2023-03-14T07:08:20;6.03;;;2.70;;
79135;SDS011;68533;51.090;17.216;2023-03-14T07:10:48;5.10;;;2.97;;
79135;SDS011;68533;51.090;17.216;2023-03-14T07:13:14;7.88;;;3.80;;
79135;SDS011;68533;51.090;17.216;2023-03-14T07:15:40;3.97;;;2.17;;
79135;SDS011;68533;51.090;17.216;2023-03-14T07:18:12;4.65;;;3.03;;
79135;SDS011;68533;51.090;17.216;2023-03-14T07:21:00;4.10;;;1.83;;
79135;SDS011;68533;51.090;17.216;2023-03-14T07:23:38;5.70;;;2.67;;
79135;SDS011;68533;51.090;17.216;2023-03-14T07:26:07;4.65;;;1.60;;
79135;SDS011;68533;51.090;17.216;2023-03-14T07:28:33;5.63;;;3.03;;
79135;SDS011;68533;51.090;17.216;2023-03-14T07:31:00;5.30;;;2.55;;
79135;SDS011;68533;51.090;17.216;2023-03-14T07:33:26;5.43;;;2.78;;
79135;SDS011;68533;51.090;17.216;2023-03-14T07:35:52;6.10;;;2.80;;
79135;SDS011;68533;51.090;17.216;2023-03-14T07:38:18;5.43;;;3.00;;
79135;SDS011;68533;51.090;17.216;2023-03-14T07:40:44;5.72;;;2.35;;
79135;SDS011;68533;51.090;17.216;2023-03-14T07:43:10;6.40;;;3.25;;
79135;SDS011;68533;51.090;17.216;2023-03-14T07:45:37;6.05;;;3.25;;
79135;SDS011;68533;51.090;17.216;2023-03-14T07:48:03;8.52;;;3.25;;
79135;SDS011;68533;51.090;17.216;2023-03-14T07:50:30;4.65;;;2.80;;
79135;SDS011;68533;51.090;17.216;2023-03-14T07:52:55;8.73;;;4.00;;
79135;SDS011;68533;51.090;17.216;2023-03-14T07:55:23;5.97;;;3.25;;
79135;SDS011;68533;51.090;17.216;2023-03-14T07:57:49;5.60;;;3.10;;
79135;SDS011;68533;51.090;17.216;2023-03-14T08:00:15;5.75;;;3.08;;
79135;SDS011;68533;51.090;17.216;2023-03-14T08:02:41;9.50;;;3.33;;
79135;SDS011;68533;51.090;17.216;2023-03-14T08:05:09;5.97;;;3.20;;
79135;SDS011;68533;51.090;17.216;2023-03-14T08:07:36;5.35;;;2.67;;
79135;SDS011;68533;51.090;17.216;2023-03-14T08:10:03;7.93;;;3.45;;
79135;SDS011;68533;51.090;17.216;2023-03-14T08:12:30;5.35;;;2.85;;
79135;SDS011;68533;51.090;17.216;2023-03-14T08:14:56;7.97;;;3.40;;
79135;SDS011;68533;51.090;17.216;2023-03-14T08:17:22;5.93;;;2.83;;
79135;SDS011;68533;51.090;17.216;2023-03-14T08:19:48;9.98;;;3.40;;
79135;SDS011;68533;51.090;17.216;2023-03-14T08:22:14;7.10;;;2.83;;
79135;SDS011;68533;51.090;17.216;2023-03-14T08:24:41;4.10;;;2.60;;
79135;SDS011;68533;51.090;17.216;2023-03-14T08:27:07;6.15;;;3.00;;
79135;SDS011;68533;51.090;17.216;2023-03-14T08:29:34;4.75;;;3.63;;
79135;SDS011;68533;51.090;17.216;2023-03-14T08:32:00;6.03;;;3.38;;
79135;SDS011;68533;51.090;17.216;2023-03-14T08:34:28;6.18;;;3.47;;
79135;SDS011;68533;51.090;17.216;2023-03-14T08:36:54;7.05;;;3.00;;
79135;SDS011;68533;51.090;17.216;2023-03-14T08:39:23;6.82;;;3.60;;
79135;SDS011;68533;51.090;17.216;2023-03-14T08:41:49;7.57;;;3.85;;
79135;SDS011;68533;51.090;17.216;2023-03-14T08:44:16;6.75;;;3.53;;
79135;SDS011;68533;51.090;17.216;2023-03-14T08:46:41;7.18;;;4.25;;
79135;SDS011;68533;51.090;17.216;2023-03-14T08:49:08;5.15;;;2.85;;
79135;SDS011;68533;51.090;17.216;2023-03-14T08:51:33;7.20;;;4.00;;
79135;SDS011;68533;51.090;17.216;2023-03-14T08:54:00;8.30;;;4.05;;
79135;SDS011;68533;51.090;17.216;2023-03-14T08:56:25;4.70;;;3.45;;
79135;SDS011;68533;51.090;17.216;2023-03-14T08:58:52;9.50;;;3.70;;
79135;SDS011;68533;51.090;17.216;2023-03-14T09:01:25;8.65;;;4.20;;
79135;SDS011;68533;51.090;17.216;2023-03-14T09:03:51;6.35;;;3.90;;
79135;SDS011;68533;51.090;17.216;2023-03-14T09:06:17;7.35;;;3.88;;
79135;SDS011;68533;51.090;17.216;2023-03-14T09:08:46;4.57;;;3.15;;
79135;SDS011;68533;51.090;17.216;2023-03-14T09:11:12;7.70;;;5.05;;
79135;SDS011;68533;51.090;17.216;2023-03-14T09:13:39;12.70;;;6.28;;
79135;SDS011;68533;51.090;17.216;2023-03-14T09:16:06;13.98;;;4.72;;
79135;SDS011;68533;51.090;17.216;2023-03-14T09:18:33;10.13;;;4.30;;
79135;SDS011;68533;51.090;17.216;2023-03-14T09:20:58;9.57;;;5.05;;
79135;SDS011;68533;51.090;17.216;2023-03-14T09:23:25;10.75;;;4.78;;
79135;SDS011;68533;51.090;17.216;2023-03-14T09:25:57;9.40;;;4.80;;
79135;SDS011;68533;51.090;17.216;2023-03-14T09:28:29;7.18;;;4.07;;
79135;SDS011;68533;51.090;17.216;2023-03-14T09:31:06;6.88;;;3.47;;
79135;SDS011;68533;51.090;17.216;2023-03-14T09:33:37;6.10;;;3.75;;
79135;SDS011;68533;51.090;17.216;2023-03-14T09:36:04;7.43;;;3.25;;
79135;SDS011;68533;51.090;17.216;2023-03-14T09:38:31;7.72;;;3.85;;
79135;SDS011;68533;51.090;17.216;2023-03-14T09:40:58;5.03;;;3.33;;
79135;SDS011;68533;51.090;17.216;2023-03-14T09:43:40;7.10;;;4.00;;
79135;SDS011;68533;51.090;17.216;2023-03-14T09:46:12;9.30;;;4.18;;
79135;SDS011;68533;51.090;17.216;2023-03-14T09:48:42;8.45;;;3.88;;
79135;SDS011;68533;51.090;17.216;2023-03-14T09:51:12;6.45;;;3.28;;
79135;SDS011;68533;51.090;17.216;2023-03-14T09:53:46;6.03;;;3.10;;
79135;SDS011;68533;51.090;17.216;2023-03-14T09:59:02;9.57;;;4.30;;
79135;SDS011;68533;51.090;17.216;2023-03-14T10:01:33;7.20;;;3.72;;
79135;SDS011;68533;51.090;17.216;2023-03-14T10:04:06;9.52;;;3.15;;
79135;SDS011;68533;51.090;17.216;2023-03-14T10:06:38;5.28;;;2.75;;
79135;SDS011;68533;51.090;17.216;2023-03-14T10:09:05;4.45;;;2.67;;
79135;SDS011;68533;51.090;17.216;2023-03-14T10:11:31;9.13;;;2.70;;
79135;SDS011;68533;51.090;17.216;2023-03-14T10:14:03;7.22;;;3.88;;
79135;SDS011;68533;51.090;17.216;2023-03-14T10:16:42;5.95;;;3.10;;
79135;SDS011;68533;51.090;17.216;2023-03-14T10:19:10;5.10;;;2.85;;
79135;SDS011;68533;51.090;17.216;2023-03-14T10:21:43;9.52;;;4.50;;
79135;SDS011;68533;51.090;17.216;2023-03-14T10:24:34;5.75;;;3.17;;
79135;SDS011;68533;51.090;17.216;2023-03-14T10:27:03;5.80;;;3.78;;
79135;SDS011;68533;51.090;17.216;2023-03-14T10:29:32;9.65;;;3.60;;
79135;SDS011;68533;51.090;17.216;2023-03-14T10:32:06;6.10;;;3.28;;
79135;SDS011;68533;51.090;17.216;2023-03-14T10:34:36;6.22;;;3.00;;
79135;SDS011;68533;51.090;17.216;2023-03-14T10:37:44;5.18;;;2.63;;
79135;SDS011;68533;51.090;17.216;2023-03-14T10:40:00;6.57;;;3.38;;
79135;SDS011;68533;51.090;17.216;2023-03-14T10:42:34;6.13;;;3.15;;
79135;SDS011;68533;51.090;17.216;2023-03-14T10:45:43;7.38;;;4.10;;
79135;SDS011;68533;51.090;17.216;2023-03-14T10:48:19;4.55;;;3.15;;
79135;SDS011;68533;51.090;17.216;2023-03-14T10:53:48;5.10;;;3.58;;
79135;SDS011;68533;51.090;17.216;2023-03-14T10:56:21;5.20;;;3.10;;
79135;SDS011;68533;51.090;17.216;2023-03-14T10:58:49;8.60;;;3.95;;
79135;SDS011;68533;51.090;17.216;2023-03-14T11:10:01;5.68;;;2.63;;
79135;SDS011;68533;51.090;17.216;2023-03-14T11:15:50;6.43;;;3.65;;
79135;SDS011;68533;51.090;17.216;2023-03-14T11:21:13;6.03;;;3.10;;
79135;SDS011;68533;51.090;17.216;2023-03-14T11:26:24;6.65;;;3.20;;
79135;SDS011;68533;51.090;17.216;2023-03-14T11:31:58;8.02;;;2.80;;
79135;SDS011;68533;51.090;17.216;2023-03-14T11:34:28;4.72;;;2.90;;
79135;SDS011;68533;51.090;17.216;2023-03-14T11:37:04;6.20;;;3.08;;
79135;SDS011;68533;51.090;17.216;2023-03-14T11:39:44;6.07;;;2.88;;
79135;SDS011;68533;51.090;17.216;2023-03-14T11:42:18;7.05;;;3.20;;
79135;SDS011;68533;51.090;17.216;2023-03-14T11:44:47;6.85;;;3.15;;
79135;SDS011;68533;51.090;17.216;2023-03-14T11:52:40;5.05;;;3.05;;
79135;SDS011;68533;51.090;17.216;2023-03-14T11:58:12;7.32;;;3.83;;
79135;SDS011;68533;51.090;17.216;2023-03-14T12:00:48;4.15;;;3.00;;
79135;SDS011;68533;51.090;17.216;2023-03-14T12:05:59;6.20;;;3.90;;
79135;SDS011;68533;51.090;17.216;2023-03-14T12:08:58;5.90;;;3.50;;
79135;SDS011;68533;51.090;17.216;2023-03-14T12:14:18;5.28;;;2.80;;
79135;SDS011;68533;51.090;17.216;2023-03-14T12:16:55;4.50;;;3.03;;
79135;SDS011;68533;51.090;17.216;2023-03-14T12:24:40;4.47;;;2.72;;
79135;SDS011;68533;51.090;17.216;2023-03-14T12:27:13;4.95;;;3.35;;
79135;SDS011;68533;51.090;17.216;2023-03-14T12:30:34;7.25;;;3.42;;
79135;SDS011;68533;51.090;17.216;2023-03-14T12:35:37;6.30;;;3.13;;
79135;SDS011;68533;51.090;17.216;2023-03-14T12:38:12;7.45;;;3.90;;
79135;SDS011;68533;51.090;17.216;2023-03-14T12:41:02;4.03;;;2.92;;
79135;SDS011;68533;51.090;17.216;2023-03-14T12:43:37;5.03;;;2.88;;
79135;SDS011;68533;51.090;17.216;2023-03-14T12:48:46;7.95;;;3.30;;
79135;SDS011;68533;51.090;17.216;2023-03-14T12:51:16;5.68;;;3.28;;
79135;SDS011;68533;51.090;17.216;2023-03-14T12:56:36;5.00;;;3.53;;
79135;SDS011;68533;51.090;17.216;2023-03-14T12:59:21;4.80;;;3.80;;
79135;SDS011;68533;51.090;17.216;2023-03-14T13:04:49;4.18;;;2.35;;
79135;SDS011;68533;51.090;17.216;2023-03-14T13:07:36;4.32;;;2.60;;
79135;SDS011;68533;51.090;17.216;2023-03-14T13:15:34;4.97;;;2.63;;
79135;SDS011;68533;51.090;17.216;2023-03-14T13:21:10;3.90;;;2.92;;
79135;SDS011;68533;51.090;17.216;2023-03-14T13:23:40;3.15;;;2.30;;
79135;SDS011;68533;51.090;17.216;2023-03-14T13:26:19;6.93;;;3.08;;
79135;SDS011;68533;51.090;17.216;2023-03-14T13:28:44;4.07;;;2.50;;
79135;SDS011;68533;51.090;17.216;2023-03-14T13:31:20;5.47;;;3.58;;
79135;SDS011;68533;51.090;17.216;2023-03-14T13:34:02;4.28;;;3.05;;
79135;SDS011;68533;51.090;17.216;2023-03-14T13:36:33;4.20;;;2.60;;
79135;SDS011;68533;51.090;17.216;2023-03-14T13:39:01;5.75;;;2.47;;
79135;SDS011;68533;51.090;17.216;2023-03-14T13:41:28;6.28;;;2.72;;
79135;SDS011;68533;51.090;17.216;2023-03-14T13:44:00;4.18;;;2.35;;
79135;SDS011;68533;51.090;17.216;2023-03-14T13:49:23;7.05;;;3.47;;
79135;SDS011;68533;51.090;17.216;2023-03-14T13:51:50;7.10;;;3.22;;
79135;SDS011;68533;51.090;17.216;2023-03-14T13:54:18;6.60;;;3.38;;
79135;SDS011;68533;51.090;17.216;2023-03-14T13:56:45;8.15;;;3.53;;
79135;SDS011;68533;51.090;17.216;2023-03-14T13:59:25;8.40;;;3.90;;
79135;SDS011;68533;51.090;17.216;2023-03-14T14:01:56;4.70;;;2.97;;
79135;SDS011;68533;51.090;17.216;2023-03-14T14:04:26;6.55;;;3.33;;
79135;SDS011;68533;51.090;17.216;2023-03-14T14:07:01;4.40;;;2.90;;
79135;SDS011;68533;51.090;17.216;2023-03-14T14:09:42;4.28;;;2.15;;
79135;SDS011;68533;51.090;17.216;2023-03-14T14:12:20;5.68;;;2.97;;
79135;SDS011;68533;51.090;17.216;2023-03-14T14:17:53;5.57;;;3.08;;
79135;SDS011;68533;51.090;17.216;2023-03-14T14:20:37;5.43;;;3.00;;
79135;SDS011;68533;51.090;17.216;2023-03-14T14:23:12;5.90;;;3.30;;
79135;SDS011;68533;51.090;17.216;2023-03-14T14:25:42;4.15;;;2.70;;
79135;SDS011;68533;51.090;17.216;2023-03-14T14:36:20;5.15;;;2.60;;
79135;SDS011;68533;51.090;17.216;2023-03-14T14:41:35;4.80;;;3.05;;
79135;SDS011;68533;51.090;17.216;2023-03-14T14:44:06;5.60;;;2.47;;
79135;SDS011;68533;51.090;17.216;2023-03-14T14:46:33;4.75;;;2.65;;
79135;SDS011;68533;51.090;17.216;2023-03-14T14:49:04;4.60;;;2.60;;
79135;SDS011;68533;51.090;17.216;2023-03-14T14:51:44;4.20;;;2.80;;
79135;SDS011;68533;51.090;17.216;2023-03-14T14:54:16;2.88;;;2.10;;
79135;SDS011;68533;51.090;17.216;2023-03-14T14:56:49;5.10;;;3.00;;
79135;SDS011;68533;51.090;17.216;2023-03-14T14:59:21;6.13;;;3.33;;
79135;SDS011;68533;51.090;17.216;2023-03-14T15:01:59;4.75;;;2.72;;
79135;SDS011;68533;51.090;17.216;2023-03-14T15:04:31;6.47;;;3.10;;
79135;SDS011;68533;51.090;17.216;2023-03-14T15:06:57;13.18;;;2.45;;
79135;SDS011;68533;51.090;17.216;2023-03-14T15:09:24;5.38;;;3.22;;
79135;SDS011;68533;51.090;17.216;2023-03-14T15:11:51;5.55;;;3.05;;
79135;SDS011;68533;51.090;17.216;2023-03-14T15:14:17;5.97;;;3.63;;
79135;SDS011;68533;51.090;17.216;2023-03-14T15:16:43;5.43;;;3.03;;
79135;SDS011;68533;51.090;17.216;2023-03-14T15:19:31;7.00;;;3.05;;
79135;SDS011;68533;51.090;17.216;2023-03-14T15:21:58;5.60;;;2.70;;
79135;SDS011;68533;51.090;17.216;2023-03-14T15:24:25;5.65;;;2.85;;
79135;SDS011;68533;51.090;17.216;2023-03-14T15:26:51;6.63;;;3.65;;
79135;SDS011;68533;51.090;17.216;2023-03-14T15:29:18;6.38;;;3.22;;
79135;SDS011;68533;51.090;17.216;2023-03-14T15:31:46;5.82;;;3.42;;
79135;SDS011;68533;51.090;17.216;2023-03-14T15:34:13;6.53;;;3.40;;
79135;SDS011;68533;51.090;17.216;2023-03-14T15:36:39;4.18;;;3.00;;
79135;SDS011;68533;51.090;17.216;2023-03-14T15:39:06;5.53;;;2.85;;
79135;SDS011;68533;51.090;17.216;2023-03-14T15:41:33;5.55;;;3.17;;
79135;SDS011;68533;51.090;17.216;2023-03-14T15:44:00;7.22;;;3.75;;
79135;SDS011;68533;51.090;17.216;2023-03-14T15:46:26;5.88;;;3.60;;
79135;SDS011;68533;51.090;17.216;2023-03-14T15:48:52;6.40;;;3.10;;
79135;SDS011;68533;51.090;17.216;2023-03-14T15:51:18;3.55;;;2.78;;
79135;SDS011;68533;51.090;17.216;2023-03-14T15:53:45;6.45;;;3.17;;
79135;SDS011;68533;51.090;17.216;2023-03-14T15:56:12;5.47;;;3.15;;
79135;SDS011;68533;51.090;17.216;2023-03-14T15:58:42;6.03;;;3.30;;
79135;SDS011;68533;51.090;17.216;2023-03-14T16:01:12;9.45;;;4.07;;
79135;SDS011;68533;51.090;17.216;2023-03-14T16:03:42;6.57;;;3.85;;
79135;SDS011;68533;51.090;17.216;2023-03-14T16:06:21;13.90;;;4.93;;
79135;SDS011;68533;51.090;17.216;2023-03-14T16:08:47;6.88;;;3.90;;
79135;SDS011;68533;51.090;17.216;2023-03-14T16:11:14;6.28;;;3.80;;
79135;SDS011;68533;51.090;17.216;2023-03-14T16:16:09;7.75;;;3.60;;
79135;SDS011;68533;51.090;17.216;2023-03-14T16:18:38;7.72;;;3.70;;
79135;SDS011;68533;51.090;17.216;2023-03-14T16:21:10;6.80;;;4.03;;
79135;SDS011;68533;51.090;17.216;2023-03-14T16:23:40;6.70;;;4.05;;
79135;SDS011;68533;51.090;17.216;2023-03-14T16:26:08;6.07;;;3.42;;
79135;SDS011;68533;51.090;17.216;2023-03-14T16:28:38;6.68;;;3.78;;
79135;SDS011;68533;51.090;17.216;2023-03-14T16:31:05;9.98;;;3.85;;